Terminal Aerodrome Forecast
Issued by NWS

Home | Current Version | Previous Version | Graphics & Text | Print | Product List | Glossary On
Versions: 1 2 3 4 5 6 7 8 9 10 11 12 13 14
000
FTUS43 KTOP 290600 AAA
TAFMHK
TAF AMD
KMHK 290656Z 2907/3006 33012KT P6SM FEW250
     FM290800 34014G21KT P6SM OVC024
     FM291800 34012KT P6SM SCT025
     FM292300 35006KT P6SM SKC=

USA.gov is the U.S. government's official web portal to all federal, state and local government web resources and services.